createdAt,value
2022-11-02T00:03:38.560Z,1.65
2022-11-02T00:08:42.479Z,2.17
2022-11-02T00:13:44.975Z,1.88
2022-11-02T00:18:48.856Z,1.75
2022-11-02T00:23:53.120Z,2.45
2022-11-02T00:28:55.775Z,1.88
2022-11-02T00:33:58.569Z,2.10
2022-11-02T00:39:02.471Z,2.30
2022-11-02T00:44:05.200Z,2.10
2022-11-02T00:49:07.919Z,3.10
2022-11-02T00:54:12.340Z,2.17
2022-11-02T00:59:15.430Z,2.50
2022-11-02T01:04:18.615Z,2.17
2022-11-02T01:09:22.670Z,2.53
2022-11-02T01:19:27.824Z,2.47
2022-11-02T01:24:31.970Z,2.72
2022-11-02T01:29:34.462Z,2.72
2022-11-02T01:34:37.030Z,2.50
2022-11-02T01:39:50.863Z,2.28
2022-11-02T01:44:53.727Z,2.67
2022-11-02T01:49:58.613Z,2.50
2022-11-02T01:55:04.204Z,1.98
2022-11-02T02:00:07.924Z,2.05
2022-11-02T02:05:13.476Z,2.10
2022-11-02T02:10:18.110Z,1.92
2022-11-02T02:15:22.172Z,1.75
2022-11-02T02:20:33.393Z,2.15
2022-11-02T02:25:51.589Z,2.10
2022-11-02T02:30:57.485Z,2.42
2022-11-02T02:36:01.816Z,2.30
2022-11-02T02:41:08.895Z,1.83
2022-11-02T02:46:16.796Z,2.17
2022-11-02T02:51:27.939Z,2.03
2022-11-02T02:56:31.497Z,2.20
2022-11-02T03:06:38.737Z,1.30
2022-11-02T03:11:46.906Z,1.98
2022-11-02T03:22:10.765Z,2.20
2022-11-02T03:27:17.302Z,2.42
2022-11-02T03:32:21.971Z,1.10
2022-11-02T03:37:28.449Z,1.73
2022-11-02T03:42:34.637Z,2.17
2022-11-02T03:47:38.150Z,2.10
2022-11-02T03:52:42.984Z,2.72
2022-11-02T03:57:46.994Z,1.92
2022-11-02T04:08:12.183Z,2.58
2022-11-02T04:13:32.142Z,2.60
2022-11-02T04:18:51.630Z,2.45
2022-11-02T04:24:12.911Z,2.38
2022-11-02T04:29:15.531Z,2.05
2022-11-02T04:34:18.022Z,2.92
2022-11-02T04:39:21.962Z,2.70
2022-11-02T04:44:28.013Z,2.55
2022-11-02T04:49:31.665Z,2.70
2022-11-02T04:54:35.650Z,2.03
2022-11-02T04:59:40.125Z,2.72
2022-11-02T05:04:42.710Z,1.20
2022-11-02T05:09:46.657Z,1.08
2022-11-02T05:14:49.637Z,3.42
2022-11-02T05:19:52.562Z,1.73
2022-11-02T05:24:56.843Z,2.25
2022-11-02T05:29:59.979Z,2.20
2022-11-02T05:35:02.487Z,2.30
2022-11-02T05:40:08.792Z,2.97
2022-11-02T05:45:11.498Z,0.90
2022-11-02T05:50:14.111Z,2.55
2022-11-02T05:55:18.052Z,2.67
2022-11-02T06:05:23.200Z,1.95
2022-11-02T06:10:27.233Z,2.60
2022-11-02T06:20:32.297Z,2.65
2022-11-02T06:25:37.541Z,2.78
2022-11-02T06:30:40.237Z,2.50
2022-11-02T06:35:45.471Z,1.10
2022-11-02T06:40:55.808Z,1.48
2022-11-02T06:45:59.143Z,2.70
2022-11-02T06:51:01.760Z,2.90
2022-11-02T06:56:06.125Z,1.00
2022-11-02T07:01:09.332Z,2.53
2022-11-02T07:06:14.339Z,2.65
2022-11-02T07:11:18.708Z,3.15
2022-11-02T07:16:21.458Z,2.40
2022-11-02T07:21:24.143Z,2.63
2022-11-02T07:26:28.113Z,2.17
2022-11-02T07:31:32.507Z,3.00
2022-11-02T07:36:35.190Z,2.70
2022-11-02T07:41:39.489Z,2.72
2022-11-02T07:46:43.787Z,2.53
2022-11-02T07:51:46.538Z,2.80
2022-11-02T07:56:50.625Z,2.70
2022-11-02T08:01:53.355Z,1.77
2022-11-02T08:06:56.129Z,2.15
2022-11-02T08:12:00.127Z,2.10
2022-11-02T08:17:02.795Z,2.13
2022-11-02T08:22:05.625Z,2.22
2022-11-02T08:27:09.884Z,2.10
2022-11-02T08:32:16.582Z,1.90
2022-11-02T08:37:19.817Z,1.67
2022-11-02T08:42:23.968Z,1.85
2022-11-02T08:47:26.738Z,1.70
2022-11-02T08:57:33.360Z,1.90
2022-11-02T09:02:36.001Z,2.13
2022-11-02T09:07:38.664Z,2.33
2022-11-02T09:12:42.587Z,1.85
2022-11-02T09:17:47.406Z,2.00
2022-11-02T09:22:50.341Z,1.20
2022-11-02T09:27:55.716Z,1.45
2022-11-02T09:32:59.584Z,1.20
2022-11-02T09:38:02.329Z,1.17
2022-11-02T09:43:10.318Z,1.23
2022-11-02T09:48:19.915Z,0.77
2022-11-02T09:53:40.763Z,1.40
2022-11-02T09:58:46.373Z,1.50
2022-11-02T10:03:58.674Z,1.10
2022-11-02T10:09:03.263Z,0.80
2022-11-02T10:14:12.183Z,1.30
2022-11-02T10:19:16.501Z,1.30
2022-11-02T10:24:24.230Z,1.45
2022-11-02T10:29:34.187Z,1.20
2022-11-02T10:34:36.999Z,1.20
2022-11-02T10:39:44.266Z,1.13
2022-11-02T10:44:55.402Z,1.52
2022-11-02T10:50:16.799Z,1.30
2022-11-02T10:55:22.728Z,1.35
2022-11-02T11:00:28.492Z,1.52
2022-11-02T11:05:31.427Z,1.30
2022-11-02T11:10:37.976Z,1.63
2022-11-02T11:20:48.889Z,1.33
2022-11-02T11:25:55.691Z,1.58
2022-11-02T11:31:10.634Z,1.30
2022-11-02T11:36:21.565Z,1.55
2022-11-02T11:41:24.396Z,1.40
2022-11-02T11:46:41.159Z,1.15
2022-11-02T11:51:45.107Z,1.10
2022-11-02T11:56:47.842Z,1.55
2022-11-02T12:01:52.482Z,1.58
2022-11-02T12:07:00.607Z,1.10
2022-11-02T12:12:07.882Z,1.13
2022-11-02T12:17:27.200Z,1.60
2022-11-02T12:22:35.042Z,1.25
2022-11-02T12:27:41.577Z,1.45
2022-11-02T12:32:59.440Z,1.23
2022-11-02T12:38:10.666Z,1.15
2022-11-02T12:43:20.509Z,1.20
2022-11-02T12:48:39.070Z,1.17
2022-11-02T12:53:44.831Z,1.08
2022-11-02T12:58:47.561Z,0.57
2022-11-02T13:03:54.260Z,0.60
2022-11-02T13:09:03.040Z,1.13
2022-11-02T13:14:07.231Z,0.80
2022-11-02T13:19:16.570Z,0.60
2022-11-02T13:24:20.478Z,0.60
2022-11-02T13:29:24.980Z,0.80
2022-11-02T13:34:35.940Z,0.93
2022-11-02T13:39:45.955Z,0.77
2022-11-02T13:50:53.296Z,0.80
2022-11-02T13:56:08.018Z,0.70
2022-11-02T14:01:14.915Z,0.63
2022-11-02T14:06:32.920Z,0.80
2022-11-02T14:11:43.835Z,0.68
2022-11-02T14:17:09.286Z,0.80
2022-11-02T14:22:24.747Z,1.10
2022-11-02T14:27:31.745Z,0.90
2022-11-02T14:32:41.385Z,0.80
2022-11-02T14:38:12.694Z,1.00
2022-11-02T14:43:50.185Z,1.63
2022-11-02T14:48:57.562Z,0.75
2022-11-02T14:54:11.215Z,1.10
2022-11-02T14:59:22.375Z,1.00
2022-11-02T15:04:27.974Z,2.28
2022-11-02T15:09:55.492Z,0.70
2022-11-02T15:15:03.570Z,1.33
2022-11-02T15:20:31.230Z,1.10
2022-11-02T15:25:50.239Z,0.93
2022-11-02T15:31:26.581Z,2.58
2022-11-02T15:36:45.155Z,1.30
2022-11-02T15:42:10.548Z,1.17
2022-11-02T15:47:20.201Z,1.20
2022-11-02T15:52:46.466Z,1.27
2022-11-02T15:58:22.050Z,1.10
2022-11-02T16:03:41.232Z,1.60
2022-11-02T16:08:59.082Z,1.40
2022-11-02T16:14:18.867Z,1.38
2022-11-02T16:19:35.677Z,1.60
2022-11-02T16:24:50.360Z,1.55
2022-11-02T16:30:06.504Z,1.45
2022-11-02T16:35:25.704Z,1.67
2022-11-02T16:40:42.048Z,1.33
2022-11-02T16:45:57.499Z,1.50
2022-11-02T16:51:21.108Z,1.80
2022-11-02T16:56:33.545Z,1.50
2022-11-02T17:01:45.657Z,2.10
2022-11-02T17:07:23.812Z,2.17
2022-11-02T17:12:38.566Z,2.58
2022-11-02T17:18:20.733Z,2.35
2022-11-02T17:23:52.130Z,2.30
2022-11-02T17:29:20.357Z,2.47
2022-11-02T17:34:50.320Z,2.20
2022-11-02T17:40:07.261Z,2.70
2022-11-02T17:45:29.869Z,2.55
2022-11-02T17:56:11.310Z,2.88
2022-11-02T18:01:20.037Z,3.55
2022-11-02T18:06:50.175Z,4.43
2022-11-02T18:12:09.807Z,6.03
2022-11-02T18:17:20.824Z,4.35
2022-11-02T18:22:46.454Z,4.18
2022-11-02T18:28:09.049Z,3.30
2022-11-02T18:33:32.091Z,1.38
2022-11-02T18:38:55.450Z,2.80
2022-11-02T18:44:15.849Z,1.27
2022-11-02T18:49:46.286Z,3.13
2022-11-02T18:54:53.244Z,4.20
2022-11-02T19:00:02.812Z,6.22
2022-11-02T19:05:26.463Z,3.97
2022-11-02T19:10:51.789Z,4.22
2022-11-02T19:16:02.407Z,4.33
2022-11-02T19:21:25.084Z,3.75
2022-11-02T19:26:31.755Z,3.42
2022-11-02T19:31:45.792Z,4.25
2022-11-02T19:37:21.125Z,1.88
2022-11-02T19:48:26.510Z,2.72
2022-11-02T19:53:41.896Z,4.07
2022-11-02T19:58:57.334Z,4.55
2022-11-02T20:04:09.228Z,3.35
2022-11-02T20:09:28.482Z,4.70
2022-11-02T20:14:40.773Z,2.58
2022-11-02T20:19:57.859Z,2.67
2022-11-02T20:25:14.429Z,3.20
2022-11-02T20:30:39.421Z,2.33
2022-11-02T20:35:51.459Z,1.38
2022-11-02T20:41:02.006Z,2.65
2022-11-02T20:46:36.389Z,1.90
2022-11-02T20:51:44.175Z,1.37
2022-11-02T20:56:52.056Z,1.27
2022-11-02T21:02:07.417Z,2.40
2022-11-02T21:07:45.610Z,2.30
2022-11-02T21:13:11.425Z,2.75
2022-11-02T21:18:24.603Z,1.48
2022-11-02T21:23:33.576Z,2.35
2022-11-02T21:28:53.596Z,3.17
2022-11-02T21:33:58.553Z,2.80
2022-11-02T21:39:20.264Z,1.33
2022-11-02T21:44:33.696Z,3.20
2022-11-02T21:49:37.666Z,1.85
2022-11-02T21:54:59.675Z,3.45
2022-11-02T22:00:19.544Z,3.28
2022-11-02T22:05:43.684Z,2.75
2022-11-02T22:10:51.575Z,3.03
2022-11-02T22:16:06.321Z,2.90
2022-11-02T22:21:27.164Z,2.60
2022-11-02T22:26:36.804Z,3.50
2022-11-02T22:31:51.329Z,2.72
2022-11-02T22:37:25.856Z,2.60
2022-11-02T22:47:53.322Z,2.60
2022-11-02T22:52:59.300Z,3.35
2022-11-02T22:58:07.585Z,2.13
2022-11-02T23:03:28.764Z,2.85
2022-11-02T23:08:43.567Z,2.70
2022-11-02T23:13:59.483Z,3.00
2022-11-02T23:25:08.725Z,3.10
2022-11-02T23:30:29.415Z,3.10
2022-11-02T23:35:58.690Z,3.05
2022-11-02T23:41:02.578Z,3.60
2022-11-02T23:46:05.312Z,3.00
2022-11-02T23:51:25.433Z,3.05
2022-11-02T23:56:45.114Z,2.97
